createdAt,value
2023-02-12T00:04:28.009Z,29.17
2023-02-12T00:14:32.635Z,27.50
2023-02-12T00:24:35.851Z,31.03
2023-02-12T00:34:40.518Z,33.37
2023-02-12T00:44:43.763Z,30.63
2023-02-12T00:54:48.323Z,31.87
2023-02-12T01:04:51.580Z,30.17
2023-02-12T01:14:56.291Z,24.53
2023-02-12T01:24:59.617Z,26.27
2023-02-12T01:35:04.706Z,28.10
2023-02-12T01:45:45.318Z,27.37
2023-02-12T01:55:57.470Z,27.17
2023-02-12T02:06:07.471Z,32.97
2023-02-12T02:16:26.504Z,31.67
2023-02-12T02:26:48.252Z,31.10
2023-02-12T02:37:01.270Z,28.23
2023-02-12T02:47:07.739Z,28.77
2023-02-12T02:57:16.899Z,27.00
2023-02-12T03:07:25.506Z,30.27
2023-02-12T03:17:33.864Z,31.80
2023-02-12T03:27:41.684Z,33.43
2023-02-12T03:37:57.382Z,32.80
2023-02-12T03:48:07.323Z,34.00
2023-02-12T03:58:17.812Z,28.07
2023-02-12T04:08:20.990Z,28.43
2023-02-12T04:18:34.570Z,30.07
2023-02-12T04:28:47.397Z,35.57
2023-02-12T04:38:55.154Z,33.97
2023-02-12T04:49:00.158Z,30.57
2023-02-12T04:59:05.405Z,32.27
2023-02-12T05:09:09.650Z,27.23
2023-02-12T05:19:14.178Z,23.33
2023-02-12T05:29:17.394Z,30.43
2023-02-12T05:39:21.977Z,29.67
2023-02-12T05:49:25.137Z,28.27
2023-02-12T05:59:29.667Z,22.93
2023-02-12T06:09:32.852Z,32.10
2023-02-12T06:19:38.038Z,29.57
2023-02-12T06:29:41.199Z,25.70
2023-02-12T06:39:45.869Z,26.67
2023-02-12T06:49:49.053Z,21.93
2023-02-12T06:59:53.661Z,28.87
2023-02-12T07:09:56.908Z,28.80
2023-02-12T07:20:01.638Z,27.33
2023-02-12T07:30:05.109Z,24.00
2023-02-12T07:40:11.008Z,25.67
2023-02-12T07:50:14.172Z,25.63
2023-02-12T08:00:19.858Z,24.17
2023-02-12T08:10:23.645Z,27.33
2023-02-12T08:20:28.388Z,26.23
2023-02-12T08:30:31.538Z,22.20
2023-02-12T08:40:36.061Z,24.00
2023-02-12T08:50:39.235Z,25.30
2023-02-12T09:00:43.957Z,27.23
2023-02-12T09:10:47.552Z,23.70
2023-02-12T09:20:52.063Z,20.13
2023-02-12T09:30:55.368Z,23.77
2023-02-12T09:41:25.404Z,24.57
2023-02-12T09:51:31.390Z,26.97
2023-02-12T10:01:36.713Z,31.13
2023-02-12T10:11:53.178Z,29.03
2023-02-12T10:22:06.966Z,27.73
2023-02-12T10:32:20.485Z,33.73
2023-02-12T10:42:33.405Z,29.77
2023-02-12T10:52:43.044Z,29.70
2023-02-12T11:03:03.558Z,30.23
2023-02-12T11:13:07.849Z,27.43
2023-02-12T11:23:27.910Z,29.47
2023-02-12T11:33:34.684Z,32.40
2023-02-12T11:43:40.619Z,30.83
2023-02-12T11:53:48.233Z,32.27
2023-02-12T12:04:00.000Z,31.37
2023-02-12T12:14:09.218Z,35.43
2023-02-12T12:24:18.478Z,29.30
2023-02-12T12:34:24.877Z,32.27
2023-02-12T12:44:36.831Z,29.93
2023-02-12T12:54:58.054Z,29.60
2023-02-12T13:05:35.942Z,27.73
2023-02-12T13:15:45.710Z,27.37
2023-02-12T13:25:57.942Z,27.13
2023-02-12T13:36:04.353Z,27.50
2023-02-12T13:46:15.559Z,26.00
2023-02-12T13:56:34.084Z,25.10
2023-02-12T14:06:38.690Z,26.57
2023-02-12T14:16:42.471Z,24.40
2023-02-12T14:26:47.560Z,24.33
2023-02-12T14:37:11.952Z,23.37
2023-02-12T14:47:52.843Z,23.80
2023-02-12T14:58:02.148Z,25.87
2023-02-12T15:08:09.952Z,24.50
2023-02-12T15:18:17.439Z,22.73
2023-02-12T15:28:26.668Z,22.67
2023-02-12T15:38:33.401Z,25.27
2023-02-12T15:48:38.825Z,22.63
2023-02-12T15:58:48.134Z,22.07
2023-02-12T16:08:58.337Z,24.07
2023-02-12T16:19:17.135Z,23.93
2023-02-12T16:29:22.194Z,21.90
2023-02-12T16:40:08.001Z,24.30
2023-02-12T16:50:19.021Z,22.77
2023-02-12T17:00:23.930Z,23.70
2023-02-12T17:10:28.633Z,22.93
2023-02-12T17:20:31.820Z,25.40
2023-02-12T17:30:37.336Z,22.50
2023-02-12T17:40:40.611Z,24.03
2023-02-12T17:50:45.603Z,24.87
2023-02-12T18:00:48.786Z,25.17
2023-02-12T18:10:53.345Z,27.97
2023-02-12T18:20:56.744Z,25.73
2023-02-12T18:31:01.937Z,25.93
2023-02-12T18:41:09.581Z,29.27
2023-02-12T18:51:16.541Z,33.47
2023-02-12T19:01:21.416Z,28.27
2023-02-12T19:11:26.463Z,29.70
2023-02-12T19:21:30.829Z,30.97
2023-02-12T19:31:37.638Z,31.10
2023-02-12T19:41:41.607Z,28.97
2023-02-12T19:51:46.339Z,32.97
2023-02-12T20:01:50.334Z,29.13
2023-02-12T20:11:55.217Z,34.57
2023-02-12T20:22:01.376Z,31.67
2023-02-12T20:32:06.211Z,28.90
2023-02-12T20:42:09.448Z,30.17
2023-02-12T20:52:14.015Z,29.87
2023-02-12T21:02:18.503Z,28.30
2023-02-12T21:12:23.096Z,27.83
2023-02-12T21:22:26.232Z,29.17
2023-02-12T21:32:30.826Z,25.80
2023-02-12T21:42:34.161Z,30.67
2023-02-12T21:52:38.752Z,28.57
2023-02-12T22:02:41.900Z,33.03
2023-02-12T22:12:46.561Z,29.10
2023-02-12T22:22:49.773Z,28.60
2023-02-12T22:32:54.421Z,30.33
2023-02-12T22:42:57.610Z,33.87
2023-02-12T22:53:02.123Z,37.10
2023-02-12T23:03:05.333Z,34.43
2023-02-12T23:13:10.554Z,37.33
2023-02-12T23:23:17.289Z,31.23
2023-02-12T23:33:22.185Z,30.43
2023-02-12T23:43:25.376Z,30.10
2023-02-12T23:53:29.889Z,29.60
